sensor_id;sensor_type;location;lat;lon;timestamp;P1;durP1;ratioP1;P2;durP2;ratioP2
39078;SDS011;24829;49.208;12.080;2023-06-10T00:01:41;9.10;;;5.60;;
39078;SDS011;24829;49.208;12.080;2023-06-10T00:04:08;6.18;;;5.55;;
39078;SDS011;24829;49.208;12.080;2023-06-10T00:06:33;10.60;;;6.90;;
39078;SDS011;24829;49.208;12.080;2023-06-10T00:09:04;6.28;;;5.28;;
39078;SDS011;24829;49.208;12.080;2023-06-10T00:11:33;6.80;;;5.90;;
39078;SDS011;24829;49.208;12.080;2023-06-10T00:13:59;8.95;;;6.00;;
39078;SDS011;24829;49.208;12.080;2023-06-10T00:16:25;6.07;;;5.47;;
39078;SDS011;24829;49.208;12.080;2023-06-10T00:18:51;13.23;;;6.53;;
39078;SDS011;24829;49.208;12.080;2023-06-10T00:21:17;7.25;;;6.15;;
39078;SDS011;24829;49.208;12.080;2023-06-10T00:23:42;6.25;;;5.65;;
39078;SDS011;24829;49.208;12.080;2023-06-10T00:26:08;8.13;;;6.28;;
39078;SDS011;24829;49.208;12.080;2023-06-10T00:28:34;7.85;;;6.95;;
39078;SDS011;24829;49.208;12.080;2023-06-10T00:30:59;6.90;;;6.07;;
39078;SDS011;24829;49.208;12.080;2023-06-10T00:33:25;8.13;;;6.03;;
39078;SDS011;24829;49.208;12.080;2023-06-10T00:35:51;6.30;;;5.70;;
39078;SDS011;24829;49.208;12.080;2023-06-10T00:38:16;8.27;;;5.90;;
39078;SDS011;24829;49.208;12.080;2023-06-10T00:40:42;7.15;;;6.50;;
39078;SDS011;24829;49.208;12.080;2023-06-10T00:43:08;7.75;;;6.60;;
39078;SDS011;24829;49.208;12.080;2023-06-10T00:45:33;7.68;;;6.63;;
39078;SDS011;24829;49.208;12.080;2023-06-10T00:47:59;7.00;;;6.30;;
39078;SDS011;24829;49.208;12.080;2023-06-10T00:50:25;7.88;;;6.68;;
39078;SDS011;24829;49.208;12.080;2023-06-10T00:52:51;7.25;;;6.20;;
39078;SDS011;24829;49.208;12.080;2023-06-10T00:55:18;7.50;;;6.40;;
39078;SDS011;24829;49.208;12.080;2023-06-10T00:57:44;8.88;;;6.40;;
39078;SDS011;24829;49.208;12.080;2023-06-10T01:00:11;8.52;;;6.80;;
39078;SDS011;24829;49.208;12.080;2023-06-10T01:02:37;6.88;;;6.13;;
39078;SDS011;24829;49.208;12.080;2023-06-10T01:05:03;7.45;;;5.97;;
39078;SDS011;24829;49.208;12.080;2023-06-10T01:10:38;6.95;;;6.30;;
39078;SDS011;24829;49.208;12.080;2023-06-10T01:13:09;8.35;;;6.28;;
39078;SDS011;24829;49.208;12.080;2023-06-10T01:15:37;6.63;;;6.00;;
39078;SDS011;24829;49.208;12.080;2023-06-10T01:18:04;7.95;;;6.63;;
39078;SDS011;24829;49.208;12.080;2023-06-10T01:20:33;7.00;;;6.28;;
39078;SDS011;24829;49.208;12.080;2023-06-10T01:23:02;9.40;;;7.18;;
39078;SDS011;24829;49.208;12.080;2023-06-10T01:25:28;7.47;;;6.70;;
39078;SDS011;24829;49.208;12.080;2023-06-10T01:28:10;8.10;;;7.28;;
39078;SDS011;24829;49.208;12.080;2023-06-10T01:31:03;7.75;;;6.88;;
39078;SDS011;24829;49.208;12.080;2023-06-10T01:33:53;7.82;;;6.45;;
39078;SDS011;24829;49.208;12.080;2023-06-10T01:36:19;8.98;;;6.97;;
39078;SDS011;24829;49.208;12.080;2023-06-10T01:38:48;7.63;;;6.88;;
39078;SDS011;24829;49.208;12.080;2023-06-10T01:41:18;7.45;;;6.68;;
39078;SDS011;24829;49.208;12.080;2023-06-10T01:43:46;8.00;;;7.05;;
39078;SDS011;24829;49.208;12.080;2023-06-10T01:46:12;13.80;;;7.72;;
39078;SDS011;24829;49.208;12.080;2023-06-10T01:48:38;10.93;;;7.65;;
39078;SDS011;24829;49.208;12.080;2023-06-10T01:51:04;8.77;;;6.93;;
39078;SDS011;24829;49.208;12.080;2023-06-10T01:53:30;9.50;;;8.07;;
39078;SDS011;24829;49.208;12.080;2023-06-10T01:55:56;8.82;;;7.93;;
39078;SDS011;24829;49.208;12.080;2023-06-10T01:58:21;8.00;;;7.20;;
39078;SDS011;24829;49.208;12.080;2023-06-10T02:00:47;7.68;;;6.72;;
39078;SDS011;24829;49.208;12.080;2023-06-10T02:03:12;11.65;;;7.25;;
39078;SDS011;24829;49.208;12.080;2023-06-10T02:05:38;7.82;;;6.55;;
39078;SDS011;24829;49.208;12.080;2023-06-10T02:08:04;10.07;;;7.38;;
39078;SDS011;24829;49.208;12.080;2023-06-10T02:10:30;8.65;;;7.20;;
39078;SDS011;24829;49.208;12.080;2023-06-10T02:12:55;8.52;;;7.70;;
39078;SDS011;24829;49.208;12.080;2023-06-10T02:15:21;8.93;;;7.82;;
39078;SDS011;24829;49.208;12.080;2023-06-10T02:17:46;8.95;;;7.53;;
39078;SDS011;24829;49.208;12.080;2023-06-10T02:20:13;8.25;;;7.28;;
39078;SDS011;24829;49.208;12.080;2023-06-10T02:22:39;7.75;;;6.90;;
39078;SDS011;24829;49.208;12.080;2023-06-10T02:25:05;8.57;;;7.60;;
39078;SDS011;24829;49.208;12.080;2023-06-10T02:27:31;9.70;;;8.13;;
39078;SDS011;24829;49.208;12.080;2023-06-10T02:29:57;10.30;;;7.68;;
39078;SDS011;24829;49.208;12.080;2023-06-10T02:32:22;9.77;;;8.23;;
39078;SDS011;24829;49.208;12.080;2023-06-10T02:34:48;8.52;;;7.63;;
39078;SDS011;24829;49.208;12.080;2023-06-10T02:37:14;11.05;;;8.48;;
39078;SDS011;24829;49.208;12.080;2023-06-10T02:39:40;10.65;;;8.95;;
39078;SDS011;24829;49.208;12.080;2023-06-10T02:42:06;11.13;;;8.45;;
39078;SDS011;24829;49.208;12.080;2023-06-10T02:44:32;9.43;;;8.43;;
39078;SDS011;24829;49.208;12.080;2023-06-10T02:46:58;10.05;;;9.02;;
39078;SDS011;24829;49.208;12.080;2023-06-10T02:49:23;9.43;;;8.48;;
39078;SDS011;24829;49.208;12.080;2023-06-10T02:51:52;10.20;;;9.18;;
39078;SDS011;24829;49.208;12.080;2023-06-10T02:54:19;8.88;;;7.85;;
39078;SDS011;24829;49.208;12.080;2023-06-10T02:56:45;10.25;;;9.13;;
39078;SDS011;24829;49.208;12.080;2023-06-10T02:59:12;8.88;;;7.95;;
39078;SDS011;24829;49.208;12.080;2023-06-10T03:01:38;9.98;;;8.32;;
39078;SDS011;24829;49.208;12.080;2023-06-10T03:04:04;9.20;;;8.20;;
39078;SDS011;24829;49.208;12.080;2023-06-10T03:06:31;10.40;;;8.75;;
39078;SDS011;24829;49.208;12.080;2023-06-10T03:08:59;9.23;;;8.32;;
39078;SDS011;24829;49.208;12.080;2023-06-10T03:11:25;9.68;;;8.68;;
39078;SDS011;24829;49.208;12.080;2023-06-10T03:13:50;10.57;;;9.07;;
39078;SDS011;24829;49.208;12.080;2023-06-10T03:16:17;12.88;;;8.95;;
39078;SDS011;24829;49.208;12.080;2023-06-10T03:18:43;12.85;;;8.68;;
39078;SDS011;24829;49.208;12.080;2023-06-10T03:21:09;12.52;;;9.13;;
39078;SDS011;24829;49.208;12.080;2023-06-10T03:23:34;15.85;;;9.90;;
39078;SDS011;24829;49.208;12.080;2023-06-10T03:26:00;11.07;;;9.98;;
39078;SDS011;24829;49.208;12.080;2023-06-10T03:28:26;10.93;;;9.48;;
39078;SDS011;24829;49.208;12.080;2023-06-10T03:30:52;11.25;;;9.80;;
39078;SDS011;24829;49.208;12.080;2023-06-10T03:33:17;10.02;;;9.00;;
39078;SDS011;24829;49.208;12.080;2023-06-10T03:35:43;12.98;;;9.95;;
39078;SDS011;24829;49.208;12.080;2023-06-10T03:38:09;12.13;;;10.30;;
39078;SDS011;24829;49.208;12.080;2023-06-10T03:40:34;10.55;;;8.98;;
39078;SDS011;24829;49.208;12.080;2023-06-10T03:43:00;12.77;;;9.75;;
39078;SDS011;24829;49.208;12.080;2023-06-10T03:45:25;11.77;;;10.57;;
39078;SDS011;24829;49.208;12.080;2023-06-10T03:47:53;11.07;;;9.95;;
39078;SDS011;24829;49.208;12.080;2023-06-10T03:50:18;13.38;;;10.00;;
39078;SDS011;24829;49.208;12.080;2023-06-10T03:52:44;11.30;;;9.80;;
39078;SDS011;24829;49.208;12.080;2023-06-10T03:55:10;13.02;;;9.32;;
39078;SDS011;24829;49.208;12.080;2023-06-10T03:57:38;12.80;;;10.40;;
39078;SDS011;24829;49.208;12.080;2023-06-10T04:00:04;12.00;;;9.35;;
39078;SDS011;24829;49.208;12.080;2023-06-10T04:02:36;10.13;;;9.05;;
39078;SDS011;24829;49.208;12.080;2023-06-10T04:05:01;9.98;;;8.98;;
39078;SDS011;24829;49.208;12.080;2023-06-10T04:07:27;11.43;;;10.15;;
39078;SDS011;24829;49.208;12.080;2023-06-10T04:09:53;12.40;;;9.05;;
39078;SDS011;24829;49.208;12.080;2023-06-10T04:12:18;11.65;;;9.65;;
39078;SDS011;24829;49.208;12.080;2023-06-10T04:14:44;12.07;;;10.32;;
39078;SDS011;24829;49.208;12.080;2023-06-10T04:17:09;11.45;;;10.25;;
39078;SDS011;24829;49.208;12.080;2023-06-10T04:19:35;12.65;;;10.30;;
39078;SDS011;24829;49.208;12.080;2023-06-10T04:22:01;16.77;;;9.13;;
39078;SDS011;24829;49.208;12.080;2023-06-10T04:24:30;9.38;;;8.48;;
39078;SDS011;24829;49.208;12.080;2023-06-10T04:26:55;9.65;;;8.55;;
39078;SDS011;24829;49.208;12.080;2023-06-10T04:29:21;9.90;;;7.72;;
39078;SDS011;24829;49.208;12.080;2023-06-10T04:31:47;9.30;;;8.38;;
39078;SDS011;24829;49.208;12.080;2023-06-10T04:34:13;9.93;;;8.05;;
39078;SDS011;24829;49.208;12.080;2023-06-10T04:36:39;13.50;;;7.72;;
39078;SDS011;24829;49.208;12.080;2023-06-10T04:39:04;10.00;;;8.18;;
39078;SDS011;24829;49.208;12.080;2023-06-10T04:41:30;9.40;;;7.90;;
39078;SDS011;24829;49.208;12.080;2023-06-10T04:43:56;10.82;;;7.90;;
39078;SDS011;24829;49.208;12.080;2023-06-10T04:46:22;7.60;;;6.90;;
39078;SDS011;24829;49.208;12.080;2023-06-10T04:48:49;9.48;;;8.05;;
39078;SDS011;24829;49.208;12.080;2023-06-10T04:51:14;8.32;;;7.53;;
39078;SDS011;24829;49.208;12.080;2023-06-10T04:53:40;8.05;;;7.28;;
39078;SDS011;24829;49.208;12.080;2023-06-10T04:56:05;9.85;;;7.30;;
39078;SDS011;24829;49.208;12.080;2023-06-10T04:58:32;8.48;;;7.10;;
39078;SDS011;24829;49.208;12.080;2023-06-10T05:00:58;8.18;;;7.32;;
39078;SDS011;24829;49.208;12.080;2023-06-10T05:03:24;7.88;;;7.07;;
39078;SDS011;24829;49.208;12.080;2023-06-10T05:05:51;9.15;;;7.00;;
39078;SDS011;24829;49.208;12.080;2023-06-10T05:08:16;8.60;;;7.07;;
39078;SDS011;24829;49.208;12.080;2023-06-10T05:10:42;8.57;;;6.05;;
39078;SDS011;24829;49.208;12.080;2023-06-10T05:13:08;8.25;;;6.70;;
39078;SDS011;24829;49.208;12.080;2023-06-10T05:15:33;6.72;;;6.13;;
39078;SDS011;24829;49.208;12.080;2023-06-10T05:17:59;8.20;;;6.03;;
39078;SDS011;24829;49.208;12.080;2023-06-10T05:20:25;6.88;;;6.18;;
39078;SDS011;24829;49.208;12.080;2023-06-10T05:22:50;6.90;;;6.30;;
39078;SDS011;24829;49.208;12.080;2023-06-10T05:25:16;7.80;;;6.75;;
39078;SDS011;24829;49.208;12.080;2023-06-10T05:27:42;7.15;;;6.50;;
39078;SDS011;24829;49.208;12.080;2023-06-10T05:30:08;7.78;;;7.07;;
39078;SDS011;24829;49.208;12.080;2023-06-10T05:32:35;7.03;;;6.32;;
39078;SDS011;24829;49.208;12.080;2023-06-10T05:35:01;6.25;;;5.65;;
39078;SDS011;24829;49.208;12.080;2023-06-10T05:37:27;6.80;;;6.20;;
39078;SDS011;24829;49.208;12.080;2023-06-10T05:39:52;7.68;;;6.95;;
39078;SDS011;24829;49.208;12.080;2023-06-10T05:42:18;7.05;;;6.32;;
39078;SDS011;24829;49.208;12.080;2023-06-10T05:44:43;7.57;;;6.22;;
39078;SDS011;24829;49.208;12.080;2023-06-10T05:47:09;6.47;;;5.88;;
39078;SDS011;24829;49.208;12.080;2023-06-10T05:49:34;7.00;;;6.30;;
39078;SDS011;24829;49.208;12.080;2023-06-10T05:52:00;7.82;;;6.47;;
39078;SDS011;24829;49.208;12.080;2023-06-10T05:54:26;6.85;;;6.25;;
39078;SDS011;24829;49.208;12.080;2023-06-10T05:56:52;6.53;;;5.93;;
39078;SDS011;24829;49.208;12.080;2023-06-10T05:59:17;6.82;;;6.22;;
39078;SDS011;24829;49.208;12.080;2023-06-10T06:01:43;6.50;;;5.88;;
39078;SDS011;24829;49.208;12.080;2023-06-10T06:04:08;6.80;;;6.15;;
39078;SDS011;24829;49.208;12.080;2023-06-10T06:06:34;6.57;;;5.85;;
39078;SDS011;24829;49.208;12.080;2023-06-10T06:09:01;6.22;;;5.50;;
39078;SDS011;24829;49.208;12.080;2023-06-10T06:11:26;7.18;;;6.47;;
39078;SDS011;24829;49.208;12.080;2023-06-10T06:13:52;7.32;;;6.60;;
39078;SDS011;24829;49.208;12.080;2023-06-10T06:16:17;7.68;;;6.07;;
39078;SDS011;24829;49.208;12.080;2023-06-10T06:18:43;6.82;;;6.22;;
39078;SDS011;24829;49.208;12.080;2023-06-10T06:21:09;6.65;;;5.90;;
39078;SDS011;24829;49.208;12.080;2023-06-10T06:23:34;7.05;;;6.38;;
39078;SDS011;24829;49.208;12.080;2023-06-10T06:26:00;7.28;;;6.45;;
39078;SDS011;24829;49.208;12.080;2023-06-10T06:28:26;8.77;;;6.80;;
39078;SDS011;24829;49.208;12.080;2023-06-10T06:30:54;6.97;;;5.95;;
39078;SDS011;24829;49.208;12.080;2023-06-10T06:33:20;10.05;;;6.25;;
39078;SDS011;24829;49.208;12.080;2023-06-10T06:35:46;7.57;;;6.07;;
39078;SDS011;24829;49.208;12.080;2023-06-10T06:38:12;7.63;;;6.25;;
39078;SDS011;24829;49.208;12.080;2023-06-10T06:40:37;8.25;;;6.68;;
39078;SDS011;24829;49.208;12.080;2023-06-10T06:43:03;7.90;;;6.60;;
39078;SDS011;24829;49.208;12.080;2023-06-10T06:45:28;6.97;;;6.25;;
39078;SDS011;24829;49.208;12.080;2023-06-10T06:47:54;7.28;;;5.93;;
39078;SDS011;24829;49.208;12.080;2023-06-10T06:50:21;7.15;;;6.00;;
39078;SDS011;24829;49.208;12.080;2023-06-10T06:52:46;8.38;;;7.13;;
39078;SDS011;24829;49.208;12.080;2023-06-10T06:55:12;8.50;;;6.88;;
39078;SDS011;24829;49.208;12.080;2023-06-10T06:57:37;8.15;;;7.03;;
39078;SDS011;24829;49.208;12.080;2023-06-10T07:00:03;7.18;;;6.47;;
39078;SDS011;24829;49.208;12.080;2023-06-10T07:02:29;6.60;;;6.07;;
39078;SDS011;24829;49.208;12.080;2023-06-10T07:04:57;7.45;;;6.38;;
39078;SDS011;24829;49.208;12.080;2023-06-10T07:07:23;13.25;;;7.25;;
39078;SDS011;24829;49.208;12.080;2023-06-10T07:09:49;7.15;;;6.55;;
39078;SDS011;24829;49.208;12.080;2023-06-10T07:12:15;6.63;;;6.03;;
39078;SDS011;24829;49.208;12.080;2023-06-10T07:14:40;7.88;;;6.00;;
39078;SDS011;24829;49.208;12.080;2023-06-10T07:17:06;7.05;;;6.40;;
39078;SDS011;24829;49.208;12.080;2023-06-10T07:19:32;6.50;;;5.90;;
39078;SDS011;24829;49.208;12.080;2023-06-10T07:21:58;7.03;;;6.28;;
39078;SDS011;24829;49.208;12.080;2023-06-10T07:24:23;6.72;;;5.82;;
39078;SDS011;24829;49.208;12.080;2023-06-10T07:26:50;6.72;;;6.03;;
39078;SDS011;24829;49.208;12.080;2023-06-10T07:29:15;6.95;;;5.30;;
39078;SDS011;24829;49.208;12.080;2023-06-10T07:31:41;6.30;;;5.70;;
39078;SDS011;24829;49.208;12.080;2023-06-10T07:34:07;6.68;;;6.07;;
39078;SDS011;24829;49.208;12.080;2023-06-10T07:36:32;6.50;;;5.90;;
39078;SDS011;24829;49.208;12.080;2023-06-10T07:38:58;6.97;;;6.32;;
39078;SDS011;24829;49.208;12.080;2023-06-10T07:41:24;6.78;;;5.70;;
39078;SDS011;24829;49.208;12.080;2023-06-10T07:43:53;7.55;;;5.45;;
39078;SDS011;24829;49.208;12.080;2023-06-10T07:46:22;5.78;;;4.65;;
39078;SDS011;24829;49.208;12.080;2023-06-10T07:48:48;8.52;;;5.68;;
39078;SDS011;24829;49.208;12.080;2023-06-10T07:51:14;5.50;;;4.95;;
39078;SDS011;24829;49.208;12.080;2023-06-10T07:53:41;4.93;;;4.40;;
39078;SDS011;24829;49.208;12.080;2023-06-10T07:56:07;13.80;;;4.85;;
39078;SDS011;24829;49.208;12.080;2023-06-10T07:58:32;4.68;;;4.15;;
39078;SDS011;24829;49.208;12.080;2023-06-10T08:00:58;9.68;;;5.07;;
39078;SDS011;24829;49.208;12.080;2023-06-10T08:03:23;8.95;;;6.18;;
39078;SDS011;24829;49.208;12.080;2023-06-10T08:05:49;7.25;;;5.28;;
39078;SDS011;24829;49.208;12.080;2023-06-10T08:08:14;19.02;;;5.63;;
39078;SDS011;24829;49.208;12.080;2023-06-10T08:10:40;8.88;;;5.13;;
39078;SDS011;24829;49.208;12.080;2023-06-10T08:13:05;14.50;;;6.18;;
39078;SDS011;24829;49.208;12.080;2023-06-10T08:15:32;10.40;;;4.95;;
39078;SDS011;24829;49.208;12.080;2023-06-10T08:17:58;5.38;;;4.88;;
39078;SDS011;24829;49.208;12.080;2023-06-10T08:20:23;19.13;;;5.05;;
39078;SDS011;24829;49.208;12.080;2023-06-10T08:22:49;6.55;;;5.10;;
39078;SDS011;24829;49.208;12.080;2023-06-10T08:25:15;4.35;;;3.95;;
39078;SDS011;24829;49.208;12.080;2023-06-10T08:27:40;9.80;;;4.85;;
39078;SDS011;24829;49.208;12.080;2023-06-10T08:30:06;4.43;;;3.85;;
39078;SDS011;24829;49.208;12.080;2023-06-10T08:32:33;4.78;;;4.18;;
39078;SDS011;24829;49.208;12.080;2023-06-10T08:34:58;5.97;;;4.82;;
39078;SDS011;24829;49.208;12.080;2023-06-10T08:37:24;5.32;;;3.95;;
39078;SDS011;24829;49.208;12.080;2023-06-10T08:39:49;6.05;;;4.28;;
39078;SDS011;24829;49.208;12.080;2023-06-10T08:44:46;4.50;;;4.10;;
39078;SDS011;24829;49.208;12.080;2023-06-10T08:47:15;5.72;;;3.83;;
39078;SDS011;24829;49.208;12.080;2023-06-10T08:49:45;4.03;;;3.63;;
39078;SDS011;24829;49.208;12.080;2023-06-10T08:52:15;5.00;;;4.55;;
39078;SDS011;24829;49.208;12.080;2023-06-10T08:54:49;6.95;;;4.57;;
39078;SDS011;24829;49.208;12.080;2023-06-10T08:57:19;5.90;;;3.80;;
39078;SDS011;24829;49.208;12.080;2023-06-10T08:59:46;5.00;;;4.00;;
39078;SDS011;24829;49.208;12.080;2023-06-10T09:02:13;4.10;;;3.70;;
39078;SDS011;24829;49.208;12.080;2023-06-10T09:04:40;4.43;;;3.92;;
39078;SDS011;24829;49.208;12.080;2023-06-10T09:07:08;5.75;;;3.63;;
39078;SDS011;24829;49.208;12.080;2023-06-10T09:09:35;7.65;;;4.28;;
39078;SDS011;24829;49.208;12.080;2023-06-10T09:12:02;3.80;;;3.38;;
39078;SDS011;24829;49.208;12.080;2023-06-10T09:14:28;4.65;;;3.78;;
39078;SDS011;24829;49.208;12.080;2023-06-10T09:16:54;3.85;;;3.53;;
39078;SDS011;24829;49.208;12.080;2023-06-10T09:19:22;4.43;;;4.03;;
39078;SDS011;24829;49.208;12.080;2023-06-10T09:21:50;7.65;;;4.20;;
39078;SDS011;24829;49.208;12.080;2023-06-10T09:24:15;4.82;;;3.78;;
39078;SDS011;24829;49.208;12.080;2023-06-10T09:26:41;4.35;;;3.67;;
39078;SDS011;24829;49.208;12.080;2023-06-10T09:29:08;3.92;;;3.53;;
39078;SDS011;24829;49.208;12.080;2023-06-10T09:31:35;4.32;;;3.92;;
39078;SDS011;24829;49.208;12.080;2023-06-10T09:34:05;4.07;;;3.67;;
39078;SDS011;24829;49.208;12.080;2023-06-10T09:36:32;3.72;;;3.42;;
39078;SDS011;24829;49.208;12.080;2023-06-10T09:38:58;4.20;;;3.78;;
39078;SDS011;24829;49.208;12.080;2023-06-10T09:41:33;3.83;;;3.53;;
39078;SDS011;24829;49.208;12.080;2023-06-10T09:44:00;4.63;;;3.72;;
39078;SDS011;24829;49.208;12.080;2023-06-10T09:46:30;4.22;;;3.42;;
39078;SDS011;24829;49.208;12.080;2023-06-10T09:48:59;9.75;;;4.00;;
39078;SDS011;24829;49.208;12.080;2023-06-10T09:51:25;5.68;;;3.80;;
39078;SDS011;24829;49.208;12.080;2023-06-10T09:53:51;4.20;;;3.80;;
39078;SDS011;24829;49.208;12.080;2023-06-10T09:56:17;4.30;;;3.90;;
39078;SDS011;24829;49.208;12.080;2023-06-10T09:58:44;4.30;;;3.90;;
39078;SDS011;24829;49.208;12.080;2023-06-10T10:01:12;4.28;;;3.88;;
39078;SDS011;24829;49.208;12.080;2023-06-10T10:03:46;5.47;;;3.95;;
39078;SDS011;24829;49.208;12.080;2023-06-10T10:06:13;4.22;;;3.75;;
39078;SDS011;24829;49.208;12.080;2023-06-10T10:08:40;4.40;;;4.00;;
39078;SDS011;24829;49.208;12.080;2023-06-10T10:11:05;4.65;;;3.80;;
39078;SDS011;24829;49.208;12.080;2023-06-10T10:13:33;5.28;;;4.25;;
39078;SDS011;24829;49.208;12.080;2023-06-10T10:15:59;5.50;;;3.95;;
39078;SDS011;24829;49.208;12.080;2023-06-10T10:18:29;4.70;;;4.07;;
39078;SDS011;24829;49.208;12.080;2023-06-10T10:20:57;5.10;;;4.30;;
39078;SDS011;24829;49.208;12.080;2023-06-10T10:23:26;5.10;;;4.28;;
39078;SDS011;24829;49.208;12.080;2023-06-10T10:28:25;4.53;;;4.13;;
39078;SDS011;24829;49.208;12.080;2023-06-10T10:31:01;4.45;;;4.05;;
39078;SDS011;24829;49.208;12.080;2023-06-10T10:36:22;4.95;;;4.47;;
39078;SDS011;24829;49.208;12.080;2023-06-10T10:38:48;5.45;;;4.95;;
39078;SDS011;24829;49.208;12.080;2023-06-10T10:41:16;5.72;;;4.70;;
39078;SDS011;24829;49.208;12.080;2023-06-10T10:43:44;4.95;;;4.47;;
39078;SDS011;24829;49.208;12.080;2023-06-10T10:46:12;4.35;;;3.95;;
39078;SDS011;24829;49.208;12.080;2023-06-10T10:48:38;4.72;;;4.32;;
39078;SDS011;24829;49.208;12.080;2023-06-10T10:51:06;5.13;;;4.55;;
39078;SDS011;24829;49.208;12.080;2023-06-10T10:53:32;4.25;;;3.85;;
39078;SDS011;24829;49.208;12.080;2023-06-10T10:55:58;4.30;;;3.90;;
39078;SDS011;24829;49.208;12.080;2023-06-10T10:58:38;6.72;;;4.30;;
39078;SDS011;24829;49.208;12.080;2023-06-10T11:01:10;5.10;;;4.05;;
39078;SDS011;24829;49.208;12.080;2023-06-10T11:03:41;4.45;;;3.95;;
39078;SDS011;24829;49.208;12.080;2023-06-10T11:06:15;4.85;;;3.80;;
39078;SDS011;24829;49.208;12.080;2023-06-10T11:16:27;4.43;;;2.35;;
39078;SDS011;24829;49.208;12.080;2023-06-10T11:18:54;2.70;;;2.05;;
39078;SDS011;24829;49.208;12.080;2023-06-10T11:21:20;4.00;;;1.80;;
39078;SDS011;24829;49.208;12.080;2023-06-10T11:23:48;2.22;;;1.70;;
39078;SDS011;24829;49.208;12.080;2023-06-10T11:26:33;2.40;;;2.20;;
39078;SDS011;24829;49.208;12.080;2023-06-10T11:33:58;3.25;;;2.95;;
39078;SDS011;24829;49.208;12.080;2023-06-10T11:36:26;4.60;;;3.30;;
39078;SDS011;24829;49.208;12.080;2023-06-10T11:38:55;3.53;;;3.22;;
39078;SDS011;24829;49.208;12.080;2023-06-10T11:41:26;4.00;;;3.25;;
39078;SDS011;24829;49.208;12.080;2023-06-10T11:43:53;3.72;;;2.50;;
39078;SDS011;24829;49.208;12.080;2023-06-10T11:46:21;3.25;;;2.75;;
39078;SDS011;24829;49.208;12.080;2023-06-10T11:48:49;4.45;;;2.42;;
39078;SDS011;24829;49.208;12.080;2023-06-10T11:51:19;2.50;;;2.20;;
39078;SDS011;24829;49.208;12.080;2023-06-10T11:53:46;4.90;;;2.92;;
39078;SDS011;24829;49.208;12.080;2023-06-10T11:56:13;3.03;;;2.72;;
39078;SDS011;24829;49.208;12.080;2023-06-10T11:58:43;3.47;;;2.65;;
39078;SDS011;24829;49.208;12.080;2023-06-10T12:01:10;2.28;;;1.98;;
39078;SDS011;24829;49.208;12.080;2023-06-10T12:03:36;5.95;;;2.42;;
39078;SDS011;24829;49.208;12.080;2023-06-10T12:06:03;2.70;;;2.42;;
39078;SDS011;24829;49.208;12.080;2023-06-10T12:08:30;2.78;;;2.45;;
39078;SDS011;24829;49.208;12.080;2023-06-10T12:10:56;3.45;;;3.15;;
39078;SDS011;24829;49.208;12.080;2023-06-10T12:13:22;2.50;;;2.30;;
39078;SDS011;24829;49.208;12.080;2023-06-10T12:15:50;4.38;;;2.60;;
39078;SDS011;24829;49.208;12.080;2023-06-10T12:18:16;2.70;;;2.30;;
39078;SDS011;24829;49.208;12.080;2023-06-10T12:20:46;2.65;;;2.10;;
39078;SDS011;24829;49.208;12.080;2023-06-10T12:23:12;3.17;;;2.78;;
39078;SDS011;24829;49.208;12.080;2023-06-10T12:25:38;2.53;;;2.13;;
39078;SDS011;24829;49.208;12.080;2023-06-10T12:28:04;4.63;;;2.40;;
39078;SDS011;24829;49.208;12.080;2023-06-10T12:30:31;4.22;;;2.30;;
39078;SDS011;24829;49.208;12.080;2023-06-10T12:32:57;2.90;;;2.03;;
39078;SDS011;24829;49.208;12.080;2023-06-10T12:35:23;3.30;;;2.00;;
39078;SDS011;24829;49.208;12.080;2023-06-10T12:37:58;3.33;;;2.17;;
39078;SDS011;24829;49.208;12.080;2023-06-10T12:42:58;3.83;;;1.88;;
39078;SDS011;24829;49.208;12.080;2023-06-10T12:45:31;2.97;;;1.95;;
39078;SDS011;24829;49.208;12.080;2023-06-10T12:50:40;4.03;;;2.05;;
39078;SDS011;24829;49.208;12.080;2023-06-10T12:53:07;3.92;;;2.58;;
39078;SDS011;24829;49.208;12.080;2023-06-10T12:55:33;3.33;;;2.13;;
39078;SDS011;24829;49.208;12.080;2023-06-10T12:57:59;2.40;;;2.20;;
39078;SDS011;24829;49.208;12.080;2023-06-10T13:00:26;2.03;;;1.80;;
39078;SDS011;24829;49.208;12.080;2023-06-10T13:02:55;3.28;;;1.63;;
39078;SDS011;24829;49.208;12.080;2023-06-10T13:05:21;2.10;;;1.60;;
39078;SDS011;24829;49.208;12.080;2023-06-10T13:07:47;3.58;;;1.98;;
39078;SDS011;24829;49.208;12.080;2023-06-10T13:10:13;3.25;;;1.50;;
39078;SDS011;24829;49.208;12.080;2023-06-10T13:12:40;2.67;;;2.25;;
39078;SDS011;24829;49.208;12.080;2023-06-10T13:15:05;2.35;;;1.95;;
39078;SDS011;24829;49.208;12.080;2023-06-10T13:17:32;2.25;;;1.92;;
39078;SDS011;24829;49.208;12.080;2023-06-10T13:19:59;2.20;;;1.98;;
39078;SDS011;24829;49.208;12.080;2023-06-10T13:22:25;2.15;;;1.95;;
39078;SDS011;24829;49.208;12.080;2023-06-10T13:24:51;2.22;;;1.88;;
39078;SDS011;24829;49.208;12.080;2023-06-10T13:27:17;1.95;;;1.70;;
39078;SDS011;24829;49.208;12.080;2023-06-10T13:29:42;2.28;;;1.70;;
39078;SDS011;24829;49.208;12.080;2023-06-10T13:32:08;4.07;;;1.77;;
39078;SDS011;24829;49.208;12.080;2023-06-10T13:34:35;2.35;;;1.80;;
39078;SDS011;24829;49.208;12.080;2023-06-10T13:37:00;1.95;;;1.75;;
39078;SDS011;24829;49.208;12.080;2023-06-10T13:39:26;2.40;;;2.10;;
39078;SDS011;24829;49.208;12.080;2023-06-10T13:41:52;3.38;;;1.70;;
39078;SDS011;24829;49.208;12.080;2023-06-10T13:44:17;2.65;;;1.80;;
39078;SDS011;24829;49.208;12.080;2023-06-10T13:46:43;1.90;;;1.50;;
39078;SDS011;24829;49.208;12.080;2023-06-10T13:49:08;3.13;;;1.90;;
39078;SDS011;24829;49.208;12.080;2023-06-10T13:51:34;2.58;;;1.63;;
39078;SDS011;24829;49.208;12.080;2023-06-10T13:54:00;1.60;;;1.40;;
39078;SDS011;24829;49.208;12.080;2023-06-10T13:56:25;1.60;;;1.40;;
39078;SDS011;24829;49.208;12.080;2023-06-10T13:58:51;2.60;;;1.70;;
39078;SDS011;24829;49.208;12.080;2023-06-10T14:01:16;2.22;;;1.88;;
39078;SDS011;24829;49.208;12.080;2023-06-10T14:03:42;2.83;;;2.05;;
39078;SDS011;24829;49.208;12.080;2023-06-10T14:06:07;2.35;;;1.92;;
39078;SDS011;24829;49.208;12.080;2023-06-10T14:08:36;3.00;;;2.20;;
39078;SDS011;24829;49.208;12.080;2023-06-10T14:11:06;3.17;;;2.42;;
39078;SDS011;24829;49.208;12.080;2023-06-10T14:13:31;3.85;;;2.72;;
39078;SDS011;24829;49.208;12.080;2023-06-10T14:15:58;4.13;;;2.30;;
39078;SDS011;24829;49.208;12.080;2023-06-10T14:18:27;2.83;;;2.20;;
39078;SDS011;24829;49.208;12.080;2023-06-10T14:20:53;2.97;;;2.20;;
39078;SDS011;24829;49.208;12.080;2023-06-10T14:23:18;2.97;;;2.55;;
39078;SDS011;24829;49.208;12.080;2023-06-10T14:25:44;5.28;;;3.78;;
39078;SDS011;24829;49.208;12.080;2023-06-10T14:28:09;8.23;;;4.03;;
39078;SDS011;24829;49.208;12.080;2023-06-10T14:30:35;6.47;;;4.78;;
39078;SDS011;24829;49.208;12.080;2023-06-10T14:33:01;6.13;;;4.40;;
39078;SDS011;24829;49.208;12.080;2023-06-10T14:35:26;7.07;;;4.90;;
39078;SDS011;24829;49.208;12.080;2023-06-10T14:37:52;8.40;;;4.47;;
39078;SDS011;24829;49.208;12.080;2023-06-10T14:40:17;5.15;;;4.45;;
39078;SDS011;24829;49.208;12.080;2023-06-10T14:42:43;8.18;;;5.18;;
39078;SDS011;24829;49.208;12.080;2023-06-10T14:45:08;8.35;;;5.50;;
39078;SDS011;24829;49.208;12.080;2023-06-10T14:47:35;5.50;;;5.00;;
39078;SDS011;24829;49.208;12.080;2023-06-10T14:50:00;9.43;;;4.95;;
39078;SDS011;24829;49.208;12.080;2023-06-10T14:52:26;6.15;;;4.43;;
39078;SDS011;24829;49.208;12.080;2023-06-10T14:54:51;6.68;;;4.97;;
39078;SDS011;24829;49.208;12.080;2023-06-10T14:57:17;7.72;;;4.88;;
39078;SDS011;24829;49.208;12.080;2023-06-10T14:59:42;6.45;;;4.53;;